Flight Track Log - Related Links

Times and Time Zones

All times are in EDT time to prevent confusion due to time zone crossing. See the N3H flight status page for this flight to view local times or setup timezone preferences in your user account.

Time Position Orientation Groundspeed Altitude Reporting Facility
EDT Latitude Longitude Course Direction KTS MPH feet Rate Location/Type
Wed 08:52:09 PM 34.9697 -85.2992 260° West 246 283 7,700  Level Memphis Center
Wed 08:53:10 PM 35.0439 -85.3253 344° North 271 312 11,400 2,537 Climbing Memphis Center
Wed 08:54:12 PM 35.1053 -85.4111 311° West 342 394 12,900 2,032 Climbing Memphis Center
Wed 08:55:14 PM 35.1822 -85.4961 318° Northwest 367 422 15,600 2,829 Climbing Memphis Center
Wed 08:56:00 PM 35.4501 -85.7534 308° West  Level FlightAware Approximate
Wed 08:56:15 PM 35.2592 -85.5906 315° West 381 438 18,700  Level Memphis Center
Wed 08:57:17 PM 35.3383 -85.6875 315° West 396 456 20,900 2,098 Climbing Memphis Center
Wed 08:58:18 PM 35.4203 -85.7900 314° West 412 474 23,000 1,024 Climbing Memphis Center
Wed 08:59:20 PM 35.5061 -85.8947 315° West 427 491 23,000 290 Level Memphis Center
Wed 09:00:22 PM 35.5903 -85.9992 315° West 428 493 23,600 1,317 Climbing Memphis Center
Wed 09:01:23 PM 35.6811 -86.1128 315° West 433 498 25,700 2,244 Climbing Memphis Center
Wed 09:02:25 PM 35.7719 -86.2261 315° West 454 522 28,200 2,098 Climbing Memphis Center
Wed 09:03:26 PM 35.8769 -86.3572 315° West 457 526 30,000 878 Climbing Memphis Center
Wed 09:04:28 PM 35.9650 -86.4683 314° West 453 521 30,000  Level Memphis Center
Wed 09:05:30 PM 36.0544 -86.5806 315° West 453 521 30,000  Level Memphis Center
Wed 09:06:31 PM 36.1250 -86.7075 305° West 444 511 30,000  Level Memphis Center
Wed 09:07:33 PM 36.1922 -86.8492 300° West 460 529 30,000  Level Memphis Center
Wed 09:08:35 PM 36.2628 -86.9975 301° West 476 548 30,000 976 Level Memphis Center
Wed 09:09:36 PM 36.3311 -87.1378 301° West 473 544 32,000 976 Climbing Memphis Center
Wed 09:10:38 PM 36.3978 -87.2719 302° West 455 524 32,000  Level Memphis Center
Wed 09:11:39 PM 36.4667 -87.4006 304° West 445 512 32,000 976 Level Memphis Center
Wed 09:12:41 PM 36.5364 -87.5328 303° West 449 517 34,000 2,000 Climbing Memphis Center
Wed 09:13:42 PM 36.6064 -87.6664 303° West 452 520 36,100 2,049 Climbing Memphis Center
Wed 09:14:44 PM 36.6764 -87.8006 303° West 454 522 38,200 1,902 Climbing Memphis Center
Wed 09:15:45 PM 36.7456 -87.9339 303° West 454 522 40,000 878 Climbing Memphis Center
Wed 09:16:47 PM 36.8119 -88.0656 302° West 448 516 40,000  Level Memphis Center
Wed 09:17:48 PM 36.8797 -88.1947 303° West 453 521 40,000  Level Memphis Center
Wed 09:18:49 PM 36.9619 -88.3567 302° West 458 527 40,000  Level Memphis Center
Wed 09:19:51 PM 37.0308 -88.4914 303° West 458 527 40,000  Level Memphis Center
Wed 09:20:52 PM 37.0989 -88.6253 303° West 458 527 40,000  Level Memphis Center
Wed 09:21:54 PM 37.1678 -88.7622 302° West 461 531 40,000  Level Memphis Center
Wed 09:22:55 PM 37.2369 -88.9006 302° West 466 536 40,000  Level Memphis Center
Wed 09:23:56 PM 37.3064 -89.0383 302° West 466 536 40,000  Level Memphis Center
Wed 09:24:58 PM 37.3750 -89.1764 302° West 467 537 40,000  Level Memphis Center
Wed 09:25:59 PM 37.4447 -89.3158 302° West 468 539 40,000  Level Memphis Center
Wed 09:27:01 PM 37.5275 -89.4861 302° West 474 545 40,000  Level Memphis Center
Wed 09:28:02 PM 37.5961 -89.6236 302° West 472 543 40,000  Level Memphis Center
Wed 09:29:03 PM 37.6639 -89.7622 302° West 467 537 40,000 -537 Level Memphis Center
Wed 09:30:05 PM 37.7306 -89.9003 301° West 466 536 38,900 -1,619 Descending Memphis Center
Wed 09:31:09 PM 37.7961 -90.0361 301° West 457 526 36,600 -2,093 Descending Kansas City Center
Wed 09:32:14 PM 37.8597 -90.1647 302° West 451 519 34,400 -2,286 Descending Kansas City Center
Wed 09:33:15 PM 37.9361 -90.3297 300° West 450 518 31,800 -2,430 Descending Kansas City Center
Wed 09:34:15 PM 38.0025 -90.4633 302° West 450 518 29,500 -2,177 Descending Kansas City Center
Wed 09:35:19 PM 38.0661 -90.5975 301° West 449 517 27,300 -2,064 Descending Kansas City Center
Wed 09:36:20 PM 38.1269 -90.7258 301° West 432 497 25,200 -2,066 Descending Kansas City Center
Wed 09:37:21 PM 38.1872 -90.8531 301° West 425 489 23,100 -2,066 Descending Kansas City Center
Wed 09:38:22 PM 38.2494 -90.9836 301° West 409 471 21,000 -1,488 Descending Kansas City Center
Wed 09:39:26 PM 38.3000 -91.0942 300° West 397 457 20,000 -1,016 Descending Kansas City Center
Wed 09:40:26 PM 38.3544 -91.2106 301° West 388 447 18,900 -1,869 Descending Kansas City Center
Wed 09:41:28 PM 38.4092 -91.3258 301° West 384 442 16,200 -2,607 Descending Kansas City Center
Wed 09:42:28 PM 38.4631 -91.4414 301° West 367 422 13,600 -2,129 Descending Kansas City Center
Wed 09:43:32 PM 38.5169 -91.5564 301° West 325 374 11,800 -1,548 Descending Kansas City Center
Wed 09:44:32 PM 38.5542 -91.6417 299° West 288 331 10,400 -1,393 Descending Kansas City Center
Wed 09:45:24 PM 38.5869 -91.7122 301° West 269 310 9,200 -1,306 Descending Kansas City Center
Wed 09:46:36 PM 38.6297 -91.8047 301° West 271 312 7,700 -1,273 Descending Kansas City Center
Wed 09:47:36 PM 38.6664 -91.8856 300° West 267 307 6,400 -1,210 Descending Kansas City Center
Wed 09:48:40 PM 38.7025 -91.9661 300° West 266 306 5,200 -1,321 Descending Kansas City Center
Wed 09:49:25 PM 38.7444 -92.0267 312° West 248 285 4,000 -1,279 Descending Kansas City Center
Wed 09:49:41 PM 38.7467 -92.0339 292° West 254 292 3,900 -868 Descending Kansas City Center
Wed 09:50:41 PM 38.8008 -92.1114 312° West 249 287 2,900 -677 Descending Kansas City Center
Wed 09:51:45 PM 38.8381 -92.1556 317° Northwest 196 226 2,500 -720 Descending Kansas City Center
Wed 09:52:46 PM 38.8397 -92.2050 272° West 178 205 1,400 -689 Descending Kansas City Center
Wed 09:53:47 PM 38.8056 -92.2214 200° South 162 186 1,100 -295 Descending Kansas City Center
Wed 09:55:00 PM 38.8167 -92.2167 303° West  Level FlightAware Approximate
Wed 10:02:00 PM 38.8181 -92.2196 303° West  Level Estimated
Wed 10:03:00 PM 38.8167 -92.2167 303° West  Level FlightAware Approximate

Login

Don't have an account? Register now (free) for customized features, flight alerts, and more!